sensor_id;sensor_type;location;lat;lon;timestamp;temperature;humidity
29939;DHT22;16799;50.844;5.304;2023-06-10T00:00:40;21.90;91.40
29939;DHT22;16799;50.844;5.304;2023-06-10T00:03:07;21.90;91.20
29939;DHT22;16799;50.844;5.304;2023-06-10T00:05:34;21.90;90.40
29939;DHT22;16799;50.844;5.304;2023-06-10T00:08:00;21.90;90.90
29939;DHT22;16799;50.844;5.304;2023-06-10T00:10:35;21.80;91.20
29939;DHT22;16799;50.844;5.304;2023-06-10T00:13:05;21.80;91.20
29939;DHT22;16799;50.844;5.304;2023-06-10T00:15:34;21.70;92.40
29939;DHT22;16799;50.844;5.304;2023-06-10T00:18:01;21.70;93.00
29939;DHT22;16799;50.844;5.304;2023-06-10T00:20:27;21.60;93.20
29939;DHT22;16799;50.844;5.304;2023-06-10T00:22:53;21.60;93.80
29939;DHT22;16799;50.844;5.304;2023-06-10T00:25:19;21.50;93.80
29939;DHT22;16799;50.844;5.304;2023-06-10T00:27:45;21.30;93.50
29939;DHT22;16799;50.844;5.304;2023-06-10T00:30:10;21.30;94.00
29939;DHT22;16799;50.844;5.304;2023-06-10T00:32:37;21.20;93.70
29939;DHT22;16799;50.844;5.304;2023-06-10T00:35:03;21.20;93.80
29939;DHT22;16799;50.844;5.304;2023-06-10T00:37:29;21.10;94.30
29939;DHT22;16799;50.844;5.304;2023-06-10T00:39:56;21.00;94.70
29939;DHT22;16799;50.844;5.304;2023-06-10T00:42:21;21.00;95.10
29939;DHT22;16799;50.844;5.304;2023-06-10T00:44:53;21.00;94.90
29939;DHT22;16799;50.844;5.304;2023-06-10T00:47:19;20.80;95.10
29939;DHT22;16799;50.844;5.304;2023-06-10T00:49:45;20.80;96.20
29939;DHT22;16799;50.844;5.304;2023-06-10T00:52:12;20.80;96.10
29939;DHT22;16799;50.844;5.304;2023-06-10T00:54:39;20.70;96.10
29939;DHT22;16799;50.844;5.304;2023-06-10T00:57:05;20.60;96.70
29939;DHT22;16799;50.844;5.304;2023-06-10T00:59:31;20.40;96.00
29939;DHT22;16799;50.844;5.304;2023-06-10T01:01:57;20.40;96.10
29939;DHT22;16799;50.844;5.304;2023-06-10T01:04:23;20.40;96.60
29939;DHT22;16799;50.844;5.304;2023-06-10T01:07:10;20.50;96.70
29939;DHT22;16799;50.844;5.304;2023-06-10T01:09:55;20.60;97.00
29939;DHT22;16799;50.844;5.304;2023-06-10T01:14:59;20.40;97.30
29939;DHT22;16799;50.844;5.304;2023-06-10T01:17:26;20.30;97.30
29939;DHT22;16799;50.844;5.304;2023-06-10T01:19:56;20.20;98.00
29939;DHT22;16799;50.844;5.304;2023-06-10T01:22:26;20.20;98.50
29939;DHT22;16799;50.844;5.304;2023-06-10T01:24:58;20.10;98.60
29939;DHT22;16799;50.844;5.304;2023-06-10T01:27:27;20.10;98.70
29939;DHT22;16799;50.844;5.304;2023-06-10T01:30:11;20.10;98.70
29939;DHT22;16799;50.844;5.304;2023-06-10T01:32:47;20.10;99.00
29939;DHT22;16799;50.844;5.304;2023-06-10T01:35:13;20.10;99.50
29939;DHT22;16799;50.844;5.304;2023-06-10T01:37:42;20.10;99.90
29939;DHT22;16799;50.844;5.304;2023-06-10T01:40:09;20.00;99.90
29939;DHT22;16799;50.844;5.304;2023-06-10T01:42:35;19.90;99.90
29939;DHT22;16799;50.844;5.304;2023-06-10T01:45:01;19.80;99.90
29939;DHT22;16799;50.844;5.304;2023-06-10T01:47:27;19.70;99.90
29939;DHT22;16799;50.844;5.304;2023-06-10T01:49:52;19.70;99.90
29939;DHT22;16799;50.844;5.304;2023-06-10T01:52:18;19.60;99.90
29939;DHT22;16799;50.844;5.304;2023-06-10T01:54:44;19.50;99.90
29939;DHT22;16799;50.844;5.304;2023-06-10T01:57:10;19.40;99.90
29939;DHT22;16799;50.844;5.304;2023-06-10T01:59:35;19.50;99.90
29939;DHT22;16799;50.844;5.304;2023-06-10T02:02:03;19.50;99.90
29939;DHT22;16799;50.844;5.304;2023-06-10T02:04:29;19.50;99.90
29939;DHT22;16799;50.844;5.304;2023-06-10T02:06:55;19.30;99.90
29939;DHT22;16799;50.844;5.304;2023-06-10T02:09:21;19.20;99.90
29939;DHT22;16799;50.844;5.304;2023-06-10T02:11:48;19.20;99.90
29939;DHT22;16799;50.844;5.304;2023-06-10T02:14:14;19.30;99.90
29939;DHT22;16799;50.844;5.304;2023-06-10T02:16:40;19.20;99.90
29939;DHT22;16799;50.844;5.304;2023-06-10T02:19:06;19.20;99.90
29939;DHT22;16799;50.844;5.304;2023-06-10T02:21:32;18.80;99.90
29939;DHT22;16799;50.844;5.304;2023-06-10T02:24:00;18.80;99.90
29939;DHT22;16799;50.844;5.304;2023-06-10T02:26:26;18.80;99.90
29939;DHT22;16799;50.844;5.304;2023-06-10T02:28:52;18.90;99.90
29939;DHT22;16799;50.844;5.304;2023-06-10T02:31:18;18.80;99.90
29939;DHT22;16799;50.844;5.304;2023-06-10T02:33:44;18.70;99.90
29939;DHT22;16799;50.844;5.304;2023-06-10T02:36:10;18.70;99.90
29939;DHT22;16799;50.844;5.304;2023-06-10T02:38:41;18.70;99.90
29939;DHT22;16799;50.844;5.304;2023-06-10T02:41:07;18.50;99.90
29939;DHT22;16799;50.844;5.304;2023-06-10T02:43:33;18.50;99.90
29939;DHT22;16799;50.844;5.304;2023-06-10T02:45:58;18.50;99.90
29939;DHT22;16799;50.844;5.304;2023-06-10T02:48:24;18.60;99.90
29939;DHT22;16799;50.844;5.304;2023-06-10T02:50:50;18.60;99.90
29939;DHT22;16799;50.844;5.304;2023-06-10T02:53:16;18.70;99.90
29939;DHT22;16799;50.844;5.304;2023-06-10T02:55:41;18.70;99.90
29939;DHT22;16799;50.844;5.304;2023-06-10T02:58:08;18.50;99.90
29939;DHT22;16799;50.844;5.304;2023-06-10T03:00:34;18.60;99.90
29939;DHT22;16799;50.844;5.304;2023-06-10T03:02:59;18.50;99.90
29939;DHT22;16799;50.844;5.304;2023-06-10T03:05:28;18.50;99.90
29939;DHT22;16799;50.844;5.304;2023-06-10T03:07:54;18.50;99.90
29939;DHT22;16799;50.844;5.304;2023-06-10T03:10:20;18.50;99.90
29939;DHT22;16799;50.844;5.304;2023-06-10T03:12:45;18.50;99.90
29939;DHT22;16799;50.844;5.304;2023-06-10T03:15:11;18.50;99.90
29939;DHT22;16799;50.844;5.304;2023-06-10T03:17:37;18.40;99.90
29939;DHT22;16799;50.844;5.304;2023-06-10T03:20:03;18.50;99.90
29939;DHT22;16799;50.844;5.304;2023-06-10T03:22:31;18.50;99.90
29939;DHT22;16799;50.844;5.304;2023-06-10T03:24:56;18.60;99.90
29939;DHT22;16799;50.844;5.304;2023-06-10T03:27:22;18.70;99.90
29939;DHT22;16799;50.844;5.304;2023-06-10T03:29:48;18.80;99.90
29939;DHT22;16799;50.844;5.304;2023-06-10T03:32:13;18.80;99.90
29939;DHT22;16799;50.844;5.304;2023-06-10T03:34:40;18.90;99.90
29939;DHT22;16799;50.844;5.304;2023-06-10T03:37:06;19.00;99.90
29939;DHT22;16799;50.844;5.304;2023-06-10T03:39:32;19.00;99.90
29939;DHT22;16799;50.844;5.304;2023-06-10T03:41:58;18.90;99.90
29939;DHT22;16799;50.844;5.304;2023-06-10T03:44:24;18.90;99.90
29939;DHT22;16799;50.844;5.304;2023-06-10T03:46:51;19.00;99.90
29939;DHT22;16799;50.844;5.304;2023-06-10T03:49:17;19.00;99.90
29939;DHT22;16799;50.844;5.304;2023-06-10T03:51:43;19.00;99.90
29939;DHT22;16799;50.844;5.304;2023-06-10T03:54:08;19.00;99.90
29939;DHT22;16799;50.844;5.304;2023-06-10T03:56:35;19.10;99.90
29939;DHT22;16799;50.844;5.304;2023-06-10T03:59:01;19.10;99.90
29939;DHT22;16799;50.844;5.304;2023-06-10T04:01:26;19.10;99.90
29939;DHT22;16799;50.844;5.304;2023-06-10T04:03:53;19.00;99.90
29939;DHT22;16799;50.844;5.304;2023-06-10T04:06:20;19.00;99.90
29939;DHT22;16799;50.844;5.304;2023-06-10T04:08:48;19.10;99.90
29939;DHT22;16799;50.844;5.304;2023-06-10T04:11:14;19.00;99.90
29939;DHT22;16799;50.844;5.304;2023-06-10T04:13:39;19.10;99.90
29939;DHT22;16799;50.844;5.304;2023-06-10T04:16:05;19.10;99.90
29939;DHT22;16799;50.844;5.304;2023-06-10T04:18:30;19.00;99.90
29939;DHT22;16799;50.844;5.304;2023-06-10T04:20:56;19.00;99.90
29939;DHT22;16799;50.844;5.304;2023-06-10T04:23:22;19.20;99.90
29939;DHT22;16799;50.844;5.304;2023-06-10T04:25:47;19.30;99.90
29939;DHT22;16799;50.844;5.304;2023-06-10T04:28:13;19.20;99.90
29939;DHT22;16799;50.844;5.304;2023-06-10T04:30:39;19.00;99.90
29939;DHT22;16799;50.844;5.304;2023-06-10T04:33:05;18.90;99.90
29939;DHT22;16799;50.844;5.304;2023-06-10T04:35:32;19.10;99.90
29939;DHT22;16799;50.844;5.304;2023-06-10T04:37:57;19.10;99.90
29939;DHT22;16799;50.844;5.304;2023-06-10T04:40:23;19.10;99.90
29939;DHT22;16799;50.844;5.304;2023-06-10T04:42:49;19.10;99.90
29939;DHT22;16799;50.844;5.304;2023-06-10T04:45:14;19.10;99.90
29939;DHT22;16799;50.844;5.304;2023-06-10T04:47:40;19.10;99.90
29939;DHT22;16799;50.844;5.304;2023-06-10T04:50:06;19.30;99.90
29939;DHT22;16799;50.844;5.304;2023-06-10T04:52:32;19.50;99.90
29939;DHT22;16799;50.844;5.304;2023-06-10T04:54:59;19.70;99.90
29939;DHT22;16799;50.844;5.304;2023-06-10T04:57:24;19.80;99.90
29939;DHT22;16799;50.844;5.304;2023-06-10T04:59:52;19.90;99.90
29939;DHT22;16799;50.844;5.304;2023-06-10T05:02:17;20.00;99.90
29939;DHT22;16799;50.844;5.304;2023-06-10T05:04:43;20.00;99.90
29939;DHT22;16799;50.844;5.304;2023-06-10T05:07:09;20.00;99.90
29939;DHT22;16799;50.844;5.304;2023-06-10T05:09:34;20.10;99.90
29939;DHT22;16799;50.844;5.304;2023-06-10T05:12:00;20.00;99.90
29939;DHT22;16799;50.844;5.304;2023-06-10T05:14:25;20.30;99.90
29939;DHT22;16799;50.844;5.304;2023-06-10T05:16:51;20.40;99.90
29939;DHT22;16799;50.844;5.304;2023-06-10T05:19:17;20.60;99.90
29939;DHT22;16799;50.844;5.304;2023-06-10T05:21:43;20.40;99.90
29939;DHT22;16799;50.844;5.304;2023-06-10T05:24:09;20.50;99.90
29939;DHT22;16799;50.844;5.304;2023-06-10T05:26:35;20.70;99.90
29939;DHT22;16799;50.844;5.304;2023-06-10T05:29:04;20.90;99.90
29939;DHT22;16799;50.844;5.304;2023-06-10T05:31:30;21.20;99.90
29939;DHT22;16799;50.844;5.304;2023-06-10T05:33:55;21.20;99.90
29939;DHT22;16799;50.844;5.304;2023-06-10T05:36:21;21.40;99.90
29939;DHT22;16799;50.844;5.304;2023-06-10T05:38:47;21.70;99.90
29939;DHT22;16799;50.844;5.304;2023-06-10T05:41:13;21.80;99.90
29939;DHT22;16799;50.844;5.304;2023-06-10T05:43:38;22.00;99.90
29939;DHT22;16799;50.844;5.304;2023-06-10T05:46:04;22.20;99.90
29939;DHT22;16799;50.844;5.304;2023-06-10T05:48:30;22.20;99.90
29939;DHT22;16799;50.844;5.304;2023-06-10T05:50:56;22.20;99.90
29939;DHT22;16799;50.844;5.304;2023-06-10T05:53:21;22.30;99.90
29939;DHT22;16799;50.844;5.304;2023-06-10T05:55:47;22.50;99.90
29939;DHT22;16799;50.844;5.304;2023-06-10T05:58:13;22.70;99.60
29939;DHT22;16799;50.844;5.304;2023-06-10T06:00:39;22.70;99.90
29939;DHT22;16799;50.844;5.304;2023-06-10T06:03:08;22.80;99.90
29939;DHT22;16799;50.844;5.304;2023-06-10T06:05:34;22.80;99.90
29939;DHT22;16799;50.844;5.304;2023-06-10T06:08:03;22.90;98.20
29939;DHT22;16799;50.844;5.304;2023-06-10T06:10:29;23.00;98.50
29939;DHT22;16799;50.844;5.304;2023-06-10T06:12:55;23.20;98.70
29939;DHT22;16799;50.844;5.304;2023-06-10T06:15:20;23.30;97.40
29939;DHT22;16799;50.844;5.304;2023-06-10T06:17:46;23.30;98.10
29939;DHT22;16799;50.844;5.304;2023-06-10T06:20:12;23.50;98.30
29939;DHT22;16799;50.844;5.304;2023-06-10T06:22:37;23.50;98.10
29939;DHT22;16799;50.844;5.304;2023-06-10T06:25:03;23.30;96.30
29939;DHT22;16799;50.844;5.304;2023-06-10T06:27:30;23.20;97.80
29939;DHT22;16799;50.844;5.304;2023-06-10T06:29:56;23.50;98.40
29939;DHT22;16799;50.844;5.304;2023-06-10T06:32:21;23.50;96.80
29939;DHT22;16799;50.844;5.304;2023-06-10T06:34:48;23.60;97.20
29939;DHT22;16799;50.844;5.304;2023-06-10T06:37:22;23.80;99.00
29939;DHT22;16799;50.844;5.304;2023-06-10T06:39:53;24.10;96.90
29939;DHT22;16799;50.844;5.304;2023-06-10T06:42:20;24.40;95.30
29939;DHT22;16799;50.844;5.304;2023-06-10T06:44:47;24.50;94.90
29939;DHT22;16799;50.844;5.304;2023-06-10T06:47:13;24.70;93.60
29939;DHT22;16799;50.844;5.304;2023-06-10T06:49:38;24.70;93.30
29939;DHT22;16799;50.844;5.304;2023-06-10T06:52:04;24.80;92.60
29939;DHT22;16799;50.844;5.304;2023-06-10T06:54:30;24.90;94.00
29939;DHT22;16799;50.844;5.304;2023-06-10T06:56:56;25.10;92.80
29939;DHT22;16799;50.844;5.304;2023-06-10T06:59:22;25.10;93.20
29939;DHT22;16799;50.844;5.304;2023-06-10T07:01:48;25.30;93.20
29939;DHT22;16799;50.844;5.304;2023-06-10T07:04:15;25.10;91.00
29939;DHT22;16799;50.844;5.304;2023-06-10T07:06:41;25.30;92.10
29939;DHT22;16799;50.844;5.304;2023-06-10T07:09:09;25.50;93.30
29939;DHT22;16799;50.844;5.304;2023-06-10T07:11:35;25.50;90.20
29939;DHT22;16799;50.844;5.304;2023-06-10T07:14:01;25.40;90.80
29939;DHT22;16799;50.844;5.304;2023-06-10T07:16:26;25.60;90.80
29939;DHT22;16799;50.844;5.304;2023-06-10T07:18:53;25.80;91.10
29939;DHT22;16799;50.844;5.304;2023-06-10T07:21:19;25.80;90.10
29939;DHT22;16799;50.844;5.304;2023-06-10T07:23:45;25.90;89.60
29939;DHT22;16799;50.844;5.304;2023-06-10T07:26:11;26.00;91.00
29939;DHT22;16799;50.844;5.304;2023-06-10T07:28:39;26.30;89.80
29939;DHT22;16799;50.844;5.304;2023-06-10T07:31:05;26.40;88.70
29939;DHT22;16799;50.844;5.304;2023-06-10T07:33:31;26.70;91.30
29939;DHT22;16799;50.844;5.304;2023-06-10T07:35:56;26.70;89.30
29939;DHT22;16799;50.844;5.304;2023-06-10T07:38:22;26.80;89.60
29939;DHT22;16799;50.844;5.304;2023-06-10T07:40:48;26.80;89.60
29939;DHT22;16799;50.844;5.304;2023-06-10T07:43:13;27.10;84.40
29939;DHT22;16799;50.844;5.304;2023-06-10T07:45:42;27.00;86.40
29939;DHT22;16799;50.844;5.304;2023-06-10T07:48:08;27.20;84.30
29939;DHT22;16799;50.844;5.304;2023-06-10T07:50:34;27.30;83.70
29939;DHT22;16799;50.844;5.304;2023-06-10T07:53:00;27.60;84.00
29939;DHT22;16799;50.844;5.304;2023-06-10T07:55:26;27.40;82.30
29939;DHT22;16799;50.844;5.304;2023-06-10T07:57:52;27.50;82.60
29939;DHT22;16799;50.844;5.304;2023-06-10T08:00:18;27.80;82.80
29939;DHT22;16799;50.844;5.304;2023-06-10T08:02:44;28.10;86.10
29939;DHT22;16799;50.844;5.304;2023-06-10T08:05:09;28.30;82.60
29939;DHT22;16799;50.844;5.304;2023-06-10T08:07:35;28.50;85.50
29939;DHT22;16799;50.844;5.304;2023-06-10T08:10:02;28.60;78.20
29939;DHT22;16799;50.844;5.304;2023-06-10T08:12:27;28.50;77.80
29939;DHT22;16799;50.844;5.304;2023-06-10T08:14:53;28.60;78.80
29939;DHT22;16799;50.844;5.304;2023-06-10T08:17:20;28.90;82.40
29939;DHT22;16799;50.844;5.304;2023-06-10T08:19:46;28.80;78.70
29939;DHT22;16799;50.844;5.304;2023-06-10T08:22:12;28.90;78.80
29939;DHT22;16799;50.844;5.304;2023-06-10T08:24:37;28.90;76.20
29939;DHT22;16799;50.844;5.304;2023-06-10T08:27:03;28.90;78.80
29939;DHT22;16799;50.844;5.304;2023-06-10T08:29:29;29.10;77.50
29939;DHT22;16799;50.844;5.304;2023-06-10T08:32:03;29.50;78.30
29939;DHT22;16799;50.844;5.304;2023-06-10T08:34:29;29.70;78.40
29939;DHT22;16799;50.844;5.304;2023-06-10T08:36:55;30.00;75.80
29939;DHT22;16799;50.844;5.304;2023-06-10T08:39:21;29.90;77.00
29939;DHT22;16799;50.844;5.304;2023-06-10T08:44:35;30.20;79.80
29939;DHT22;16799;50.844;5.304;2023-06-10T08:47:15;30.00;78.60
29939;DHT22;16799;50.844;5.304;2023-06-10T08:49:43;30.20;78.10
29939;DHT22;16799;50.844;5.304;2023-06-10T08:52:17;30.30;76.70
29939;DHT22;16799;50.844;5.304;2023-06-10T08:54:48;30.50;80.70
29939;DHT22;16799;50.844;5.304;2023-06-10T08:57:15;30.60;78.50
29939;DHT22;16799;50.844;5.304;2023-06-10T08:59:42;30.40;79.70
29939;DHT22;16799;50.844;5.304;2023-06-10T09:02:08;30.60;74.00
29939;DHT22;16799;50.844;5.304;2023-06-10T09:04:36;30.80;76.20
29939;DHT22;16799;50.844;5.304;2023-06-10T09:07:02;30.70;70.40
29939;DHT22;16799;50.844;5.304;2023-06-10T09:09:29;30.10;74.50
29939;DHT22;16799;50.844;5.304;2023-06-10T09:11:58;30.50;74.50
29939;DHT22;16799;50.844;5.304;2023-06-10T09:14:24;30.50;73.10
29939;DHT22;16799;50.844;5.304;2023-06-10T09:16:49;30.90;70.10
29939;DHT22;16799;50.844;5.304;2023-06-10T09:19:16;30.60;73.50
29939;DHT22;16799;50.844;5.304;2023-06-10T09:21:42;30.80;71.60
29939;DHT22;16799;50.844;5.304;2023-06-10T09:24:08;31.10;73.10
29939;DHT22;16799;50.844;5.304;2023-06-10T09:26:34;31.00;70.10
29939;DHT22;16799;50.844;5.304;2023-06-10T09:29:04;30.90;68.70
29939;DHT22;16799;50.844;5.304;2023-06-10T09:31:31;30.90;71.40
29939;DHT22;16799;50.844;5.304;2023-06-10T09:34:26;31.30;69.00
29939;DHT22;16799;50.844;5.304;2023-06-10T09:36:53;31.20;66.60
29939;DHT22;16799;50.844;5.304;2023-06-10T09:39:19;31.60;73.10
29939;DHT22;16799;50.844;5.304;2023-06-10T09:41:47;32.00;68.50
29939;DHT22;16799;50.844;5.304;2023-06-10T09:44:20;31.90;64.00
29939;DHT22;16799;50.844;5.304;2023-06-10T09:46:48;31.80;64.80
29939;DHT22;16799;50.844;5.304;2023-06-10T09:49:14;31.60;64.80
29939;DHT22;16799;50.844;5.304;2023-06-10T09:51:50;31.30;66.90
29939;DHT22;16799;50.844;5.304;2023-06-10T09:54:16;31.60;67.50
29939;DHT22;16799;50.844;5.304;2023-06-10T09:56:42;32.10;66.80
29939;DHT22;16799;50.844;5.304;2023-06-10T09:59:08;32.40;65.50
29939;DHT22;16799;50.844;5.304;2023-06-10T10:01:34;32.70;63.00
29939;DHT22;16799;50.844;5.304;2023-06-10T10:04:00;32.60;63.80
29939;DHT22;16799;50.844;5.304;2023-06-10T10:06:27;32.70;60.20
29939;DHT22;16799;50.844;5.304;2023-06-10T10:08:54;32.80;63.00
29939;DHT22;16799;50.844;5.304;2023-06-10T10:11:21;33.00;59.90
29939;DHT22;16799;50.844;5.304;2023-06-10T10:13:52;32.90;58.40
29939;DHT22;16799;50.844;5.304;2023-06-10T10:16:29;32.60;56.50
29939;DHT22;16799;50.844;5.304;2023-06-10T10:19:01;31.90;57.10
29939;DHT22;16799;50.844;5.304;2023-06-10T10:21:37;32.10;60.80
29939;DHT22;16799;50.844;5.304;2023-06-10T10:24:18;32.50;58.30
29939;DHT22;16799;50.844;5.304;2023-06-10T10:26:46;32.70;57.70
29939;DHT22;16799;50.844;5.304;2023-06-10T10:29:22;32.60;56.60
29939;DHT22;16799;50.844;5.304;2023-06-10T10:31:51;33.20;58.10
29939;DHT22;16799;50.844;5.304;2023-06-10T10:34:26;33.50;55.40
29939;DHT22;16799;50.844;5.304;2023-06-10T10:36:54;33.60;53.40
29939;DHT22;16799;50.844;5.304;2023-06-10T10:39:20;33.90;51.50
29939;DHT22;16799;50.844;5.304;2023-06-10T10:41:47;34.40;56.70
29939;DHT22;16799;50.844;5.304;2023-06-10T10:44:14;35.50;54.90
29939;DHT22;16799;50.844;5.304;2023-06-10T10:46:44;36.00;51.00
29939;DHT22;16799;50.844;5.304;2023-06-10T10:49:14;35.20;47.30
29939;DHT22;16799;50.844;5.304;2023-06-10T10:52:00;35.40;48.50
29939;DHT22;16799;50.844;5.304;2023-06-10T10:54:30;36.00;47.40
29939;DHT22;16799;50.844;5.304;2023-06-10T10:59:45;35.70;44.20
29939;DHT22;16799;50.844;5.304;2023-06-10T11:02:15;35.50;46.00
29939;DHT22;16799;50.844;5.304;2023-06-10T11:04:47;36.00;45.80
29939;DHT22;16799;50.844;5.304;2023-06-10T11:07:13;36.80;45.10
29939;DHT22;16799;50.844;5.304;2023-06-10T11:10:01;37.30;41.90
29939;DHT22;16799;50.844;5.304;2023-06-10T11:15:12;37.70;39.90
29939;DHT22;16799;50.844;5.304;2023-06-10T11:20:44;38.90;40.10
29939;DHT22;16799;50.844;5.304;2023-06-10T11:23:10;39.70;39.30
29939;DHT22;16799;50.844;5.304;2023-06-10T11:25:49;38.60;38.90
29939;DHT22;16799;50.844;5.304;2023-06-10T11:28:19;37.30;42.40
29939;DHT22;16799;50.844;5.304;2023-06-10T11:30:46;37.10;38.70
29939;DHT22;16799;50.844;5.304;2023-06-10T11:33:16;37.30;39.20
29939;DHT22;16799;50.844;5.304;2023-06-10T11:35:43;38.20;38.50
29939;DHT22;16799;50.844;5.304;2023-06-10T11:38:09;37.00;38.30
29939;DHT22;16799;50.844;5.304;2023-06-10T11:40:36;37.70;40.90
29939;DHT22;16799;50.844;5.304;2023-06-10T11:43:04;37.90;40.20
29939;DHT22;16799;50.844;5.304;2023-06-10T11:45:30;37.80;40.80
29939;DHT22;16799;50.844;5.304;2023-06-10T11:48:00;36.50;39.40
29939;DHT22;16799;50.844;5.304;2023-06-10T11:50:32;36.30;43.50
29939;DHT22;16799;50.844;5.304;2023-06-10T11:52:59;37.60;40.00
29939;DHT22;16799;50.844;5.304;2023-06-10T11:55:45;37.80;41.30
29939;DHT22;16799;50.844;5.304;2023-06-10T11:58:19;39.60;38.00
29939;DHT22;16799;50.844;5.304;2023-06-10T12:00:53;40.20;39.90
29939;DHT22;16799;50.844;5.304;2023-06-10T12:03:19;40.40;37.00
29939;DHT22;16799;50.844;5.304;2023-06-10T12:05:59;39.70;36.00
29939;DHT22;16799;50.844;5.304;2023-06-10T12:08:26;39.40;35.40
29939;DHT22;16799;50.844;5.304;2023-06-10T12:10:53;39.60;37.00
29939;DHT22;16799;50.844;5.304;2023-06-10T12:13:19;39.50;35.60
29939;DHT22;16799;50.844;5.304;2023-06-10T12:15:45;40.60;38.20
29939;DHT22;16799;50.844;5.304;2023-06-10T12:18:21;39.70;35.70
29939;DHT22;16799;50.844;5.304;2023-06-10T12:20:48;40.00;38.90
29939;DHT22;16799;50.844;5.304;2023-06-10T12:23:17;38.80;38.60
29939;DHT22;16799;50.844;5.304;2023-06-10T12:25:53;38.60;39.20
29939;DHT22;16799;50.844;5.304;2023-06-10T12:28:23;38.60;36.10
29939;DHT22;16799;50.844;5.304;2023-06-10T12:30:49;39.40;38.00
29939;DHT22;16799;50.844;5.304;2023-06-10T12:33:19;39.00;37.90
29939;DHT22;16799;50.844;5.304;2023-06-10T12:35:49;38.10;36.40
29939;DHT22;16799;50.844;5.304;2023-06-10T12:38:24;35.70;36.70
29939;DHT22;16799;50.844;5.304;2023-06-10T12:40:50;35.20;39.10
29939;DHT22;16799;50.844;5.304;2023-06-10T12:43:20;35.70;37.90
29939;DHT22;16799;50.844;5.304;2023-06-10T12:45:52;35.40;36.70
29939;DHT22;16799;50.844;5.304;2023-06-10T12:48:22;36.50;37.50
29939;DHT22;16799;50.844;5.304;2023-06-10T12:50:56;36.80;37.60
29939;DHT22;16799;50.844;5.304;2023-06-10T12:53:23;36.60;37.00
29939;DHT22;16799;50.844;5.304;2023-06-10T12:55:50;37.00;38.80
29939;DHT22;16799;50.844;5.304;2023-06-10T12:58:16;37.60;38.00
29939;DHT22;16799;50.844;5.304;2023-06-10T13:00:42;37.60;38.40
29939;DHT22;16799;50.844;5.304;2023-06-10T13:03:09;37.90;37.90
29939;DHT22;16799;50.844;5.304;2023-06-10T13:05:36;38.10;35.70
29939;DHT22;16799;50.844;5.304;2023-06-10T13:08:07;39.00;36.30
29939;DHT22;16799;50.844;5.304;2023-06-10T13:10:36;38.90;35.20
29939;DHT22;16799;50.844;5.304;2023-06-10T13:13:02;37.60;33.00
29939;DHT22;16799;50.844;5.304;2023-06-10T13:15:31;37.20;35.50
29939;DHT22;16799;50.844;5.304;2023-06-10T13:17:57;38.40;35.70
29939;DHT22;16799;50.844;5.304;2023-06-10T13:20:24;37.60;31.60
29939;DHT22;16799;50.844;5.304;2023-06-10T13:22:49;38.10;33.40
29939;DHT22;16799;50.844;5.304;2023-06-10T13:25:15;38.00;33.80
29939;DHT22;16799;50.844;5.304;2023-06-10T13:27:41;37.30;33.70
29939;DHT22;16799;50.844;5.304;2023-06-10T13:30:09;38.00;34.10
29939;DHT22;16799;50.844;5.304;2023-06-10T13:32:36;38.50;34.00
29939;DHT22;16799;50.844;5.304;2023-06-10T13:35:01;39.00;35.30
29939;DHT22;16799;50.844;5.304;2023-06-10T13:37:28;38.80;32.60
29939;DHT22;16799;50.844;5.304;2023-06-10T13:39:54;38.00;34.80
29939;DHT22;16799;50.844;5.304;2023-06-10T13:42:20;37.40;35.00
29939;DHT22;16799;50.844;5.304;2023-06-10T13:44:47;37.60;36.40
29939;DHT22;16799;50.844;5.304;2023-06-10T13:47:14;38.00;34.80
29939;DHT22;16799;50.844;5.304;2023-06-10T13:49:40;36.90;35.00
29939;DHT22;16799;50.844;5.304;2023-06-10T13:52:06;38.20;35.30
29939;DHT22;16799;50.844;5.304;2023-06-10T13:54:32;38.60;32.80
29939;DHT22;16799;50.844;5.304;2023-06-10T13:56:58;38.60;34.20
29939;DHT22;16799;50.844;5.304;2023-06-10T13:59:25;38.00;32.30
29939;DHT22;16799;50.844;5.304;2023-06-10T14:01:51;39.00;34.50
29939;DHT22;16799;50.844;5.304;2023-06-10T14:04:17;37.90;32.30
29939;DHT22;16799;50.844;5.304;2023-06-10T14:06:42;38.70;32.70
29939;DHT22;16799;50.844;5.304;2023-06-10T14:09:09;39.40;34.10
29939;DHT22;16799;50.844;5.304;2023-06-10T14:11:34;40.00;32.60
29939;DHT22;16799;50.844;5.304;2023-06-10T14:14:00;40.20;31.20
29939;DHT22;16799;50.844;5.304;2023-06-10T14:16:26;41.80;30.40
29939;DHT22;16799;50.844;5.304;2023-06-10T14:18:52;41.70;30.30
29939;DHT22;16799;50.844;5.304;2023-06-10T14:21:18;40.60;30.70
29939;DHT22;16799;50.844;5.304;2023-06-10T14:23:44;41.20;30.30
29939;DHT22;16799;50.844;5.304;2023-06-10T14:26:10;42.00;29.90
29939;DHT22;16799;50.844;5.304;2023-06-10T14:28:36;42.50;30.00
29939;DHT22;16799;50.844;5.304;2023-06-10T14:31:02;41.60;29.70
29939;DHT22;16799;50.844;5.304;2023-06-10T14:33:28;42.20;29.80
29939;DHT22;16799;50.844;5.304;2023-06-10T14:35:54;40.30;30.80
29939;DHT22;16799;50.844;5.304;2023-06-10T14:38:19;38.40;32.50
29939;DHT22;16799;50.844;5.304;2023-06-10T14:40:45;39.00;32.60
29939;DHT22;16799;50.844;5.304;2023-06-10T14:43:11;40.50;32.80
29939;DHT22;16799;50.844;5.304;2023-06-10T14:45:38;40.40;31.20
29939;DHT22;16799;50.844;5.304;2023-06-10T14:48:04;40.30;31.50
29939;DHT22;16799;50.844;5.304;2023-06-10T14:50:30;39.30;31.00
29939;DHT22;16799;50.844;5.304;2023-06-10T14:52:56;40.00;30.50
29939;DHT22;16799;50.844;5.304;2023-06-10T14:55:21;40.40;31.60
29939;DHT22;16799;50.844;5.304;2023-06-10T14:57:50;41.90;31.70
29939;DHT22;16799;50.844;5.304;2023-06-10T15:00:16;41.40;30.00
29939;DHT22;16799;50.844;5.304;2023-06-10T15:02:46;41.40;30.80
29939;DHT22;16799;50.844;5.304;2023-06-10T15:05:13;41.10;30.90
29939;DHT22;16799;50.844;5.304;2023-06-10T15:07:41;41.20;31.40
29939;DHT22;16799;50.844;5.304;2023-06-10T15:10:07;39.00;29.60
29939;DHT22;16799;50.844;5.304;2023-06-10T15:12:32;38.50;33.20
29939;DHT22;16799;50.844;5.304;2023-06-10T15:14:58;38.10;32.70
29939;DHT22;16799;50.844;5.304;2023-06-10T15:17:24;39.00;33.00
29939;DHT22;16799;50.844;5.304;2023-06-10T15:19:49;40.00;33.00
29939;DHT22;16799;50.844;5.304;2023-06-10T15:22:15;40.90;30.70
29939;DHT22;16799;50.844;5.304;2023-06-10T15:24:40;39.40;30.10
29939;DHT22;16799;50.844;5.304;2023-06-10T15:27:06;39.50;31.50
29939;DHT22;16799;50.844;5.304;2023-06-10T15:29:32;40.20;32.30
29939;DHT22;16799;50.844;5.304;2023-06-10T15:31:57;41.00;32.10
29939;DHT22;16799;50.844;5.304;2023-06-10T15:34:23;39.00;32.70
29939;DHT22;16799;50.844;5.304;2023-06-10T15:36:49;37.00;34.00
29939;DHT22;16799;50.844;5.304;2023-06-10T15:39:14;37.60;36.50
29939;DHT22;16799;50.844;5.304;2023-06-10T15:41:40;38.70;35.40
29939;DHT22;16799;50.844;5.304;2023-06-10T15:44:06;38.60;34.60